Time;durP1;ratioP1;P1;durP2;ratioP2;P2;SDS_P1;SDS_P2;PMS_P1;PMS_P2;Temp;Humidity;BMP_temperature;BMP_pressure;BME280_temperature;BME280_humidity;BME280_pressure;Samples;Min_cycle;Max_cycle;Signal;HPM_P1;HPM_P2
2022/07/14 00:01:08;;;;;;;;;;;16.90;62.80;;;;;;4875154;29;19923;-79
2022/07/14 00:03:34;;;;;;;;;;;16.90;62.80;;;;;;4873788;29;19916;-80
2022/07/14 00:05:59;;;;;;;;;;;16.80;62.80;;;;;;4875633;29;19918;-80
2022/07/14 00:08:25;;;;;;;;;;;16.80;62.80;;;;;;4873725;29;20428;-80
2022/07/14 00:10:50;;;;;;;;;;;16.80;62.80;;;;;;4857784;29;19967;-80
2022/07/14 00:13:16;;;;;;;;;;;16.80;62.80;;;;;;4874658;29;19922;-80
2022/07/14 00:15:42;;;;;;;;;;;16.70;62.80;;;;;;4875168;29;19912;-79
2022/07/14 00:18:07;;;;;;;;;;;16.70;62.80;;;;;;4874410;29;20387;-79
2022/07/14 00:20:33;;;;;;;;;;;16.60;62.80;;;;;;4873498;29;19915;-78
2022/07/14 00:22:58;;;;;;;;;;;16.60;62.80;;;;;;4857540;29;20395;-79
2022/07/14 00:25:24;;;;;;;;;;;16.50;62.80;;;;;;4877761;29;19911;-78
2022/07/14 00:27:50;;;;;;;;;;;16.50;62.80;;;;;;4879565;29;20315;-78
2022/07/14 00:30:16;;;;;;;;;;;16.40;62.70;;;;;;4879305;29;19912;-78
2022/07/14 00:32:41;;;;;;;;;;;16.40;62.80;;;;;;4878315;29;19911;-78
2022/07/14 00:35:07;;;;;;;;;;;16.40;63.10;;;;;;4880539;29;19915;-78
2022/07/14 00:37:33;;;;;;;;;;;16.40;62.80;;;;;;4880362;29;20014;-78
2022/07/14 00:40:01;;;;;;;;;;;16.30;62.70;;;;;;4879005;29;19969;-79
2022/07/14 00:42:26;;;;;;;;;;;16.30;62.70;;;;;;4863349;29;19916;-78
2022/07/14 00:44:52;;;;;;;;;;;16.20;62.70;;;;;;4878780;29;19952;-78
2022/07/14 00:47:17;;;;;;;;;;;16.20;62.70;;;;;;4880479;29;19915;-78
2022/07/14 00:49:43;;;;;;;;;;;16.20;62.70;;;;;;4878889;29;19912;-78
2022/07/14 00:52:08;;;;;;;;;;;16.10;62.70;;;;;;4879383;29;20013;-78
2022/07/14 00:54:34;;;;;;;;;;;16.10;62.70;;;;;;4879909;29;19923;-78
2022/07/14 00:57:00;;;;;;;;;;;16.10;62.70;;;;;;4877098;29;20014;-78
2022/07/14 00:59:25;;;;;;;;;;;16.00;62.70;;;;;;4877784;29;19911;-78
2022/07/14 01:01:51;;;;;;;;;;;16.00;62.70;;;;;;4878169;29;19915;-78
2022/07/14 01:04:16;;;;;;;;;;;16.00;62.80;;;;;;4877452;29;20498;-78
2022/07/14 01:06:42;;;;;;;;;;;16.00;62.80;;;;;;4876598;29;19916;-79
2022/07/14 01:09:07;;;;;;;;;;;16.00;62.90;;;;;;4876897;29;20440;-78
2022/07/14 01:11:33;;;;;;;;;;;16.00;62.80;;;;;;4876438;29;19912;-78
2022/07/14 01:14:02;;;;;;;;;;;16.00;62.80;;;;;;4876469;29;19951;-78
2022/07/14 01:16:28;;;;;;;;;;;16.10;62.80;;;;;;4877288;29;19912;-78
2022/07/14 01:18:53;;;;;;;;;;;16.10;62.80;;;;;;4875714;29;20387;-78
2022/07/14 01:21:19;;;;;;;;;;;16.10;62.80;;;;;;4877695;29;20295;-78
2022/07/14 01:23:44;;;;;;;;;;;16.10;62.80;;;;;;4876383;29;19918;-78
2022/07/14 01:26:10;;;;;;;;;;;16.10;62.80;;;;;;4877867;29;19916;-78
2022/07/14 01:28:35;;;;;;;;;;;16.10;62.80;;;;;;4877537;29;19918;-78
2022/07/14 01:31:01;;;;;;;;;;;16.10;62.80;;;;;;4877704;29;19912;-78
2022/07/14 01:33:26;;;;;;;;;;;16.10;62.80;;;;;;4876050;29;19948;-78
2022/07/14 01:35:52;;;;;;;;;;;16.20;62.80;;;;;;4876106;29;19939;-78
2022/07/14 01:38:18;;;;;;;;;;;16.20;62.80;;;;;;4876115;29;20288;-78
2022/07/14 01:40:45;;;;;;;;;;;16.20;62.80;;;;;;4860996;29;20284;-78
2022/07/14 01:43:10;;;;;;;;;;;16.10;62.70;;;;;;4876296;29;20351;-77
2022/07/14 01:45:36;;;;;;;;;;;16.10;62.70;;;;;;4859617;29;20365;-78
2022/07/14 01:48:02;;;;;;;;;;;16.10;62.70;;;;;;4876128;29;19919;-78
2022/07/14 01:50:27;;;;;;;;;;;16.00;62.70;;;;;;4876460;29;19963;-78
2022/07/14 01:52:53;;;;;;;;;;;16.10;62.80;;;;;;4876653;29;19931;-78
2022/07/14 01:55:19;;;;;;;;;;;16.10;62.90;;;;;;4877379;29;19922;-78
2022/07/14 01:57:44;;;;;;;;;;;16.10;62.90;;;;;;4875797;29;19951;-78
2022/07/14 02:00:10;;;;;;;;;;;16.10;62.90;;;;;;4876551;29;19932;-78
2022/07/14 02:02:36;;;;;;;;;;;16.10;62.80;;;;;;4875771;29;19916;-78
2022/07/14 02:05:02;;;;;;;;;;;16.20;62.80;;;;;;4875898;29;20336;-78
2022/07/14 02:07:28;;;;;;;;;;;16.20;62.80;;;;;;4876545;29;20329;-78
2022/07/14 02:12:37;;;;;;;;;;;16.20;62.80;;;;;;4877577;29;20143;-78
2022/07/14 02:15:03;;;;;;;;;;;16.20;62.70;;;;;;4876869;29;19982;-78
2022/07/14 02:17:29;;;;;;;;;;;16.10;62.70;;;;;;4875347;29;20277;-78
2022/07/14 02:19:54;;;;;;;;;;;16.10;62.70;;;;;;4877214;29;20387;-78
2022/07/14 02:22:20;;;;;;;;;;;16.10;62.80;;;;;;4876946;29;20398;-78
2022/07/14 02:24:45;;;;;;;;;;;16.00;62.70;;;;;;4877028;29;19903;-78
2022/07/14 02:27:11;;;;;;;;;;;16.00;62.70;;;;;;4876862;29;19924;-78
2022/07/14 02:29:36;;;;;;;;;;;16.00;63.30;;;;;;4875633;29;19912;-78
2022/07/14 02:32:02;;;;;;;;;;;15.90;62.70;;;;;;4876097;29;19925;-78
2022/07/14 02:34:28;;;;;;;;;;;15.90;62.80;;;;;;4875693;29;19911;-78
2022/07/14 02:36:53;;;;;;;;;;;15.90;62.80;;;;;;4876447;29;19936;-79
2022/07/14 02:39:19;;;;;;;;;;;15.90;62.80;;;;;;4860226;29;19959;-78
2022/07/14 02:41:44;;;;;;;;;;;15.80;62.80;;;;;;4877325;29;19999;-78
2022/07/14 02:44:10;;;;;;;;;;;15.80;62.80;;;;;;4877406;29;19990;-78
2022/07/14 02:46:36;;;;;;;;;;;15.80;62.80;;;;;;4875933;29;19907;-78
2022/07/14 02:49:02;;;;;;;;;;;15.80;62.80;;;;;;4875618;29;19912;-78
2022/07/14 02:51:27;;;;;;;;;;;15.70;62.80;;;;;;4876625;29;19967;-78
2022/07/14 02:53:53;;;;;;;;;;;15.70;62.80;;;;;;4878113;29;20362;-78
2022/07/14 02:56:19;;;;;;;;;;;15.70;62.80;;;;;;4877962;29;19912;-78
2022/07/14 02:58:46;;;;;;;;;;;15.70;62.80;;;;;;4861425;29;20003;-78
2022/07/14 03:01:11;;;;;;;;;;;15.60;62.80;;;;;;4877989;29;19956;-78
2022/07/14 03:03:38;;;;;;;;;;;15.60;62.80;;;;;;4877374;29;19924;-77
2022/07/14 03:06:08;;;;;;;;;;;15.50;62.80;;;;;;4860551;29;19919;-77
2022/07/14 03:08:33;;;;;;;;;;;15.50;62.80;;;;;;4877113;29;19912;-78
2022/07/14 03:10:59;;;;;;;;;;;15.60;62.80;;;;;;4878133;29;19916;-78
2022/07/14 03:13:24;;;;;;;;;;;15.60;62.80;;;;;;4877033;29;19974;-78
2022/07/14 03:15:50;;;;;;;;;;;15.60;62.80;;;;;;4875748;29;19968;-78
2022/07/14 03:18:16;;;;;;;;;;;15.60;62.90;;;;;;4858458;29;19916;-77
2022/07/14 03:20:41;;;;;;;;;;;15.70;62.90;;;;;;4875059;29;19937;-78
2022/07/14 03:23:07;;;;;;;;;;;15.70;62.90;;;;;;4874543;29;19959;-78
2022/07/14 03:25:32;;;;;;;;;;;15.70;62.80;;;;;;4875266;29;19911;-78
2022/07/14 03:27:58;;;;;;;;;;;15.70;62.80;;;;;;4877251;29;19938;-77
2022/07/14 03:30:23;;;;;;;;;;;15.80;62.90;;;;;;4877867;29;20006;-78
2022/07/14 03:32:49;;;;;;;;;;;15.70;62.80;;;;;;4876689;29;19919;-78
2022/07/14 03:35:15;;;;;;;;;;;15.70;62.90;;;;;;4876150;29;20325;-78
2022/07/14 03:37:40;;;;;;;;;;;15.70;62.90;;;;;;4875725;29;19916;-78
2022/07/14 03:40:06;;;;;;;;;;;15.80;62.90;;;;;;4874254;29;19912;-78
2022/07/14 03:42:31;;;;;;;;;;;15.80;63.00;;;;;;4875667;29;19912;-78
2022/07/14 03:44:57;;;;;;;;;;;15.80;63.00;;;;;;4876075;29;19919;-77
2022/07/14 03:47:23;;;;;;;;;;;15.90;63.00;;;;;;4875626;29;19936;-78
2022/07/14 03:49:49;;;;;;;;;;;15.90;63.00;;;;;;4875618;29;19919;-78
2022/07/14 03:52:14;;;;;;;;;;;16.00;63.00;;;;;;4875339;29;20376;-78
2022/07/14 03:54:44;;;;;;;;;;;16.00;62.90;;;;;;4875948;29;19912;-78
2022/07/14 03:57:10;;;;;;;;;;;16.00;62.90;;;;;;4874590;29;19932;-78
2022/07/14 03:59:40;;;;;;;;;;;16.00;62.80;;;;;;4876635;29;19952;-78
2022/07/14 04:02:15;;;;;;;;;;;16.00;62.90;;;;;;4877206;29;19923;-78
2022/07/14 04:04:40;;;;;;;;;;;16.00;62.90;;;;;;4879138;29;20448;-78
2022/07/14 04:07:07;;;;;;;;;;;16.00;62.90;;;;;;4878355;29;19908;-78
2022/07/14 04:09:33;;;;;;;;;;;16.00;62.90;;;;;;4861901;29;19912;-77
2022/07/14 04:11:58;;;;;;;;;;;15.90;62.80;;;;;;4878422;29;19914;-78
2022/07/14 04:14:24;;;;;;;;;;;15.90;62.80;;;;;;4878827;29;20002;-78
2022/07/14 04:16:50;;;;;;;;;;;15.80;62.80;;;;;;4878242;29;19908;-78
2022/07/14 04:19:16;;;;;;;;;;;15.80;62.90;;;;;;4878780;29;20448;-78
2022/07/14 04:21:41;;;;;;;;;;;15.70;62.90;;;;;;4877164;29;20006;-78
2022/07/14 04:24:07;;;;;;;;;;;15.70;63.00;;;;;;4862241;29;19916;-78
2022/07/14 04:26:32;;;;;;;;;;;15.70;63.00;;;;;;4877279;29;19912;-78
2022/07/14 04:28:58;;;;;;;;;;;15.60;63.00;;;;;;4878046;29;19911;-78
2022/07/14 04:31:24;;;;;;;;;;;15.60;63.00;;;;;;4877355;29;19912;-78
2022/07/14 04:33:49;;;;;;;;;;;15.50;63.00;;;;;;4861628;29;19916;-78
2022/07/14 04:36:15;;;;;;;;;;;15.40;62.90;;;;;;4877229;29;19922;-78
2022/07/14 04:38:41;;;;;;;;;;;15.40;63.00;;;;;;4878090;29;19954;-78
2022/07/14 04:41:07;;;;;;;;;;;15.30;63.00;;;;;;4878363;29;20465;-78
2022/07/14 04:43:33;;;;;;;;;;;15.20;63.00;;;;;;4877353;29;19959;-78
2022/07/14 04:45:58;;;;;;;;;;;15.20;63.10;;;;;;4878521;29;20301;-78
2022/07/14 04:48:24;;;;;;;;;;;15.10;63.20;;;;;;4876853;29;20430;-78
2022/07/14 04:53:35;;;;;;;;;;;15.10;63.00;;;;;;4876704;29;20296;-78
2022/07/14 04:56:00;;;;;;;;;;;15.00;63.00;;;;;;4878282;29;20192;-78
2022/07/14 04:58:26;;;;;;;;;;;15.00;63.00;;;;;;4876522;29;20284;-78
2022/07/14 05:00:57;;;;;;;;;;;15.00;63.10;;;;;;4876588;29;19931;-78
2022/07/14 05:03:22;;;;;;;;;;;15.00;63.10;;;;;;4876558;29;19915;-78
2022/07/14 05:05:48;;;;;;;;;;;15.00;63.10;;;;;;4877908;29;19919;-78
2022/07/14 05:08:14;;;;;;;;;;;15.00;63.10;;;;;;4876534;29;19926;-78
2022/07/14 05:10:39;;;;;;;;;;;15.00;63.10;;;;;;4877581;29;19919;-78
2022/07/14 05:13:05;;;;;;;;;;;15.00;63.10;;;;;;4876202;29;19989;-78
2022/07/14 05:15:31;;;;;;;;;;;15.00;63.00;;;;;;4877691;29;19968;-78
2022/07/14 05:17:56;;;;;;;;;;;15.00;63.00;;;;;;4877794;29;19912;-78
2022/07/14 05:20:22;;;;;;;;;;;15.00;63.00;;;;;;4877432;29;20120;-78
2022/07/14 05:22:47;;;;;;;;;;;15.00;63.00;;;;;;4878255;29;20282;-78
2022/07/14 05:25:13;;;;;;;;;;;15.00;63.00;;;;;;4877216;29;20423;-78
2022/07/14 05:27:39;;;;;;;;;;;15.00;63.10;;;;;;4879084;29;19908;-78
2022/07/14 05:30:09;;;;;;;;;;;15.10;63.10;;;;;;4877617;29;20253;-77
2022/07/14 05:32:37;;;;;;;;;;;15.10;63.00;;;;;;4862159;29;19916;-78
2022/07/14 05:35:05;;;;;;;;;;;15.20;63.10;;;;;;4879226;29;20033;-78
2022/07/14 05:37:30;;;;;;;;;;;15.20;63.10;;;;;;4879529;29;19951;-78
2022/07/14 05:39:56;;;;;;;;;;;15.20;63.00;;;;;;4878669;29;19931;-77
2022/07/14 05:42:22;;;;;;;;;;;15.30;63.00;;;;;;4878095;29;19915;-77
2022/07/14 05:44:48;;;;;;;;;;;15.30;63.00;;;;;;4879041;29;19928;-78
2022/07/14 05:47:14;;;;;;;;;;;15.30;63.00;;;;;;4876972;29;19912;-78
2022/07/14 05:49:43;;;;;;;;;;;15.40;63.10;;;;;;4878595;29;20261;-78
2022/07/14 05:52:12;;;;;;;;;;;15.60;63.10;;;;;;4879212;29;19911;-78
2022/07/14 05:54:38;;;;;;;;;;;15.70;63.00;;;;;;4878166;29;20371;-78
2022/07/14 05:57:04;;;;;;;;;;;15.80;62.80;;;;;;4878698;29;19916;-79
2022/07/14 05:59:29;;;;;;;;;;;15.90;62.80;;;;;;4878201;29;19911;-77
2022/07/14 06:01:55;;;;;;;;;;;15.90;62.90;;;;;;4876712;29;19915;-77
2022/07/14 06:04:20;;;;;;;;;;;16.10;63.30;;;;;;4878648;29;19915;-78
2022/07/14 06:06:46;;;;;;;;;;;17.10;63.40;;;;;;4876756;29;19919;-78
2022/07/14 06:09:12;;;;;;;;;;;18.60;62.20;;;;;;4877228;29;20361;-78
2022/07/14 06:11:40;;;;;;;;;;;20.10;61.00;;;;;;4875846;29;20276;-79
2022/07/14 06:14:07;;;;;;;;;;;21.30;59.80;;;;;;4876435;29;19966;-78
2022/07/14 06:16:33;;;;;;;;;;;22.30;58.90;;;;;;4876517;29;19908;-79
2022/07/14 06:18:58;;;;;;;;;;;23.00;58.20;;;;;;4876283;29;19915;-78
2022/07/14 06:21:24;;;;;;;;;;;23.60;58.00;;;;;;4874040;29;19912;-78
2022/07/14 06:23:50;;;;;;;;;;;24.20;57.60;;;;;;4875706;29;20183;-79
2022/07/14 06:26:16;;;;;;;;;;;24.90;57.60;;;;;;4875376;29;20425;-78
2022/07/14 06:28:41;;;;;;;;;;;25.40;57.50;;;;;;4859209;29;19912;-79
2022/07/14 06:31:07;;;;;;;;;;;25.80;57.40;;;;;;4876492;29;20303;-78
2022/07/14 06:33:33;;;;;;;;;;;26.20;57.20;;;;;;4874527;29;19941;-78
2022/07/14 06:35:58;;;;;;;;;;;26.60;57.40;;;;;;4876321;29;20319;-78
2022/07/14 06:38:24;;;;;;;;;;;26.80;57.50;;;;;;4875528;29;19907;-79
2022/07/14 06:40:49;;;;;;;;;;;27.30;57.70;;;;;;4876261;29;19911;-79
2022/07/14 06:43:15;;;;;;;;;;;27.60;57.60;;;;;;4875309;29;19915;-79
2022/07/14 06:45:41;;;;;;;;;;;27.90;57.40;;;;;;4875418;29;19915;-79
2022/07/14 06:48:06;;;;;;;;;;;27.50;56.90;;;;;;4875423;29;19966;-78
2022/07/14 06:50:32;;;;;;;;;;;26.80;57.50;;;;;;4873880;29;20416;-78
2022/07/14 06:52:57;;;;;;;;;;;26.20;57.90;;;;;;4858218;29;19951;-78
2022/07/14 06:55:23;;;;;;;;;;;26.30;58.50;;;;;;4874836;29;19911;-78
2022/07/14 06:57:50;;;;;;;;;;;26.70;58.80;;;;;;4875028;29;20007;-79
2022/07/14 07:00:16;;;;;;;;;;;27.20;58.40;;;;;;4873625;29;19935;-78
2022/07/14 07:02:41;;;;;;;;;;;27.60;58.50;;;;;;4873670;29;20288;-78
2022/07/14 07:07:55;;;;;;;;;;;28.50;58.10;;;;;;4874732;29;19934;-78
2022/07/14 07:10:20;;;;;;;;;;;28.80;58.00;;;;;;4874432;29;19911;-78
2022/07/14 07:12:46;;;;;;;;;;;29.00;58.10;;;;;;4874656;29;20270;-78
2022/07/14 07:15:12;;;;;;;;;;;29.10;58.20;;;;;;4873329;29;20294;-78
2022/07/14 07:17:37;;;;;;;;;;;29.20;58.50;;;;;;4874621;29;19974;-77
2022/07/14 07:20:03;;;;;;;;;;;29.40;58.70;;;;;;4859422;29;20399;-78
2022/07/14 07:22:28;;;;;;;;;;;29.90;58.90;;;;;;4874404;29;19911;-73
2022/07/14 07:24:55;;;;;;;;;;;29.60;58.70;;;;;;4873991;29;19939;-78
2022/07/14 07:27:21;;;;;;;;;;;29.50;59.10;;;;;;4873143;29;19955;-78
2022/07/14 07:29:47;;;;;;;;;;;29.30;59.10;;;;;;4874481;29;20070;-78
2022/07/14 07:32:12;;;;;;;;;;;28.40;58.70;;;;;;4873080;29;19912;-78
2022/07/14 07:34:38;;;;;;;;;;;27.90;60.00;;;;;;4872826;29;19919;-78
2022/07/14 07:37:03;;;;;;;;;;;27.80;59.80;;;;;;4872658;29;19960;-78
2022/07/14 07:39:29;;;;;;;;;;;28.30;60.50;;;;;;4874340;29;19919;-78
2022/07/14 07:41:58;;;;;;;;;;;29.20;60.40;;;;;;4872770;29;19911;-77
2022/07/14 07:44:23;;;;;;;;;;;30.20;60.30;;;;;;4874123;29;19912;-78
2022/07/14 07:46:49;;;;;;;;;;;30.90;59.80;;;;;;4873747;29;19908;-78
2022/07/14 07:49:14;;;;;;;;;;;31.20;59.60;;;;;;4857397;29;20018;-78
2022/07/14 07:51:40;;;;;;;;;;;31.20;59.50;;;;;;4874177;29;19991;-78
2022/07/14 07:54:05;;;;;;;;;;;31.10;59.40;;;;;;4873119;29;19938;-78
2022/07/14 07:56:31;;;;;;;;;;;30.60;59.70;;;;;;4874059;29;20069;-78
2022/07/14 07:58:57;;;;;;;;;;;30.40;60.20;;;;;;4872769;29;19912;-78
2022/07/14 08:01:22;;;;;;;;;;;29.80;59.80;;;;;;4872742;29;19966;-78
2022/07/14 08:03:48;;;;;;;;;;;29.40;60.30;;;;;;4874010;29;19967;-78
2022/07/14 08:06:14;;;;;;;;;;;29.10;60.70;;;;;;4872791;29;19960;-78
2022/07/14 08:08:39;;;;;;;;;;;29.10;61.20;;;;;;4874248;29;19915;-78
2022/07/14 08:11:05;;;;;;;;;;;29.00;61.30;;;;;;4872615;29;20040;-78
2022/07/14 08:13:30;;;;;;;;;;;28.70;60.80;;;;;;4873630;29;19919;-78
2022/07/14 08:15:57;;;;;;;;;;;27.90;60.80;;;;;;4872489;29;19912;-78
2022/07/14 08:18:23;;;;;;;;;;;27.10;61.50;;;;;;4873615;29;19911;-77
2022/07/14 08:20:49;;;;;;;;;;;26.90;62.00;;;;;;4872364;29;19911;-78
2022/07/14 08:23:15;;;;;;;;;;;26.80;62.10;;;;;;4872745;29;20357;-77
2022/07/14 08:25:41;;;;;;;;;;;26.40;62.10;;;;;;4872807;29;19919;-78
2022/07/14 08:28:06;;;;;;;;;;;26.00;62.20;;;;;;4873519;29;20357;-78
2022/07/14 08:30:32;;;;;;;;;;;25.50;62.60;;;;;;4872475;29;20370;-78
2022/07/14 08:32:57;;;;;;;;;;;25.00;61.90;;;;;;4873568;29;19915;-78
2022/07/14 08:35:24;;;;;;;;;;;24.80;62.60;;;;;;4873262;29;19983;-77
2022/07/14 08:37:50;;;;;;;;;;;24.90;62.80;;;;;;4873426;29;20356;-78
2022/07/14 08:40:18;;;;;;;;;;;25.10;62.50;;;;;;4873730;29;19922;-78
2022/07/14 08:42:45;;;;;;;;;;;25.00;62.20;;;;;;4872498;29;19907;-78
2022/07/14 08:45:12;;;;;;;;;;;24.60;62.10;;;;;;4874430;29;20297;-78
2022/07/14 08:47:38;;;;;;;;;;;24.10;62.10;;;;;;4875849;29;20407;-77
2022/07/14 08:50:06;;;;;;;;;;;23.70;62.40;;;;;;4877221;29;19919;-77
2022/07/14 08:52:32;;;;;;;;;;;23.70;63.40;;;;;;4876089;29;20288;-77
2022/07/14 08:54:58;;;;;;;;;;;24.90;64.40;;;;;;4877057;29;19914;-78
2022/07/14 08:57:24;;;;;;;;;;;26.50;64.40;;;;;;4876863;29;19908;-78
2022/07/14 08:59:49;;;;;;;;;;;28.00;63.80;;;;;;4877941;29;19924;-78
2022/07/14 09:02:15;;;;;;;;;;;28.30;62.10;;;;;;4876995;29;19935;-78
2022/07/14 09:04:45;;;;;;;;;;;27.80;61.50;;;;;;4876359;29;19930;-78
2022/07/14 09:07:12;;;;;;;;;;;27.20;61.50;;;;;;4876356;29;20291;-78
2022/07/14 09:09:38;;;;;;;;;;;26.60;61.70;;;;;;4876399;29;19907;-78
2022/07/14 09:12:05;;;;;;;;;;;26.10;61.90;;;;;;4876462;29;19923;-78
2022/07/14 09:17:17;;;;;;;;;;;26.80;63.90;;;;;;4876467;29;19915;-78
2022/07/14 09:20:07;;;;;;;;;;;27.90;63.00;;;;;;4876279;29;19967;-78
2022/07/14 09:22:33;;;;;;;;;;;27.80;61.90;;;;;;4874885;29;19908;-79
2022/07/14 09:24:58;;;;;;;;;;;27.30;61.80;;;;;;4874988;29;20312;-78
2022/07/14 09:27:25;;;;;;;;;;;27.10;62.50;;;;;;4875819;29;19958;-79
2022/07/14 09:29:56;;;;;;;;;;;27.20;62.80;;;;;;4874468;29;19915;-80
2022/07/14 09:32:41;;;;;;;;;;;27.70;63.30;;;;;;4874534;29;20288;-80
2022/07/14 09:35:06;;;;;;;;;;;29.00;63.90;;;;;;4874882;29;20341;-80
2022/07/14 09:37:32;;;;;;;;;;;30.10;62.80;;;;;;4875768;29;19908;-80
2022/07/14 09:39:58;;;;;;;;;;;30.00;61.80;;;;;;4875737;29;19915;-79
2022/07/14 09:42:42;;;;;;;;;;;29.50;61.80;;;;;;4875947;29;19954;-79
2022/07/14 09:45:09;;;;;;;;;;;29.00;62.00;;;;;;4875617;29;20361;-80
2022/07/14 09:47:50;;;;;;;;;;;28.60;62.10;;;;;;4875745;29;20377;-80
2022/07/14 09:50:30;;;;;;;;;;;28.70;63.10;;;;;;4874480;29;19919;-76
2022/07/14 09:52:56;;;;;;;;;;;29.60;63.70;;;;;;4874454;29;19919;-76
2022/07/14 09:55:22;;;;;;;;;;;30.60;63.60;;;;;;4875912;29;19912;-76
2022/07/14 09:57:48;;;;;;;;;;;31.20;63.00;;;;;;4873585;29;19912;-76
2022/07/14 10:00:18;;;;;;;;;;;31.20;62.50;;;;;;4873774;29;20297;-76
2022/07/14 10:02:43;;;;;;;;;;;30.90;62.30;;;;;;4874119;29;19962;-75
2022/07/14 10:05:09;;;;;;;;;;;30.30;62.10;;;;;;4873823;29;19957;-75
2022/07/14 10:07:36;;;;;;;;;;;29.90;62.70;;;;;;4873248;29;19908;-77
2022/07/14 10:10:09;;;;;;;;;;;30.20;63.60;;;;;;4873636;29;19908;-76
2022/07/14 10:12:36;;;;;;;;;;;31.00;63.90;;;;;;4874803;29;19908;-76
2022/07/14 10:15:07;;;;;;;;;;;31.90;63.80;;;;;;4874832;29;19918;-76
2022/07/14 10:17:34;;;;;;;;;;;32.30;64.00;;;;;;4874954;29;19908;-76
2022/07/14 10:20:01;;;;;;;;;;;33.00;64.10;;;;;;4873649;29;20007;-76
2022/07/14 10:22:27;;;;;;;;;;;33.50;63.90;;;;;;4875157;29;19914;-77
2022/07/14 10:24:52;;;;;;;;;;;34.10;64.00;;;;;;4873494;29;19912;-76
2022/07/14 10:27:18;;;;;;;;;;;34.00;63.30;;;;;;4875237;29;19907;-76
2022/07/14 10:29:51;;;;;;;;;;;33.20;63.00;;;;;;4875145;29;19912;-76
2022/07/14 10:32:28;;;;;;;;;;;32.50;63.60;;;;;;4857979;29;19959;-77
2022/07/14 10:34:54;;;;;;;;;;;32.40;63.80;;;;;;4875241;29;19907;-77
2022/07/14 10:37:20;;;;;;;;;;;32.90;64.40;;;;;;4873494;29;19944;-76
2022/07/14 10:39:54;;;;;;;;;;;33.30;64.20;;;;;;4874792;29;19997;-76
2022/07/14 10:42:39;;;;;;;;;;;33.50;63.80;;;;;;4873360;29;19911;-77
2022/07/14 10:45:05;;;;;;;;;;;33.80;63.70;;;;;;4873471;29;20288;-76
2022/07/14 10:47:50;;;;;;;;;;;33.80;63.90;;;;;;4873418;29;19916;-76
2022/07/14 10:50:23;;;;;;;;;;;33.60;63.50;;;;;;4874444;29;20352;-76
2022/07/14 10:52:54;;;;;;;;;;;32.90;63.60;;;;;;4874220;29;20296;-76
2022/07/14 10:55:24;;;;;;;;;;;32.90;64.30;;;;;;4873247;29;19907;-76
2022/07/14 10:57:59;;;;;;;;;;;33.40;64.70;;;;;;4873168;29;19908;-76
2022/07/14 11:03:24;;;;;;;;;;;34.20;63.30;;;;;;4873795;29;20276;-76
2022/07/14 11:06:12;;;;;;;;;;;33.40;62.50;;;;;;4872455;29;19908;-75
2022/07/14 11:08:39;;;;;;;;;;;32.30;62.20;;;;;;4871964;29;19915;-75
2022/07/14 11:11:08;;;;;;;;;;;31.30;62.50;;;;;;4874158;29;19937;-76
2022/07/14 11:13:35;;;;;;;;;;;30.70;62.90;;;;;;4873933;29;19975;-76
2022/07/14 11:16:03;;;;;;;;;;;30.80;64.50;;;;;;4857563;29;19916;-77
2022/07/14 11:18:33;;;;;;;;;;;31.60;64.70;;;;;;4874089;29;20009;-76
2022/07/14 11:21:01;;;;;;;;;;;32.40;64.40;;;;;;4872931;29;19912;-75
2022/07/14 11:23:32;;;;;;;;;;;32.50;63.50;;;;;;4873020;29;19915;-76
2022/07/14 11:25:59;;;;;;;;;;;32.00;62.60;;;;;;4874232;29;19915;-76
2022/07/14 11:28:31;;;;;;;;;;;31.60;63.40;;;;;;4873895;29;19924;-76
2022/07/14 11:31:12;;;;;;;;;;;31.90;64.00;;;;;;4872519;29;19907;-76
2022/07/14 11:36:23;;;;;;;;;;;31.90;63.40;;;;;;4874238;29;20269;-77
2022/07/14 11:38:49;;;;;;;;;;;31.90;63.80;;;;;;4873914;29;19908;-75
2022/07/14 11:41:15;;;;;;;;;;;32.30;64.00;;;;;;4873235;29;20055;-76
2022/07/14 11:43:53;;;;;;;;;;;32.40;63.60;;;;;;4874479;29;19983;-77
2022/07/14 11:46:20;;;;;;;;;;;32.10;63.30;;;;;;4873938;29;19908;-76
2022/07/14 11:48:50;;;;;;;;;;;32.10;63.80;;;;;;4873716;29;19931;-76
2022/07/14 11:51:20;;;;;;;;;;;32.20;63.40;;;;;;4873978;29;19915;-76
2022/07/14 11:53:51;;;;;;;;;;;32.00;63.30;;;;;;4872417;29;20349;-76
2022/07/14 11:56:21;;;;;;;;;;;31.60;63.00;;;;;;4873478;29;20261;-76
2022/07/14 11:58:47;;;;;;;;;;;31.20;63.00;;;;;;4873451;29;19944;-76
2022/07/14 12:01:13;;;;;;;;;;;30.80;63.20;;;;;;4871878;29;20396;-76
2022/07/14 12:03:38;;;;;;;;;;;30.50;63.20;;;;;;4856511;29;19918;-76
2022/07/14 12:06:04;;;;;;;;;;;30.20;63.30;;;;;;4856864;29;20371;-76
2022/07/14 12:08:32;;;;;;;;;;;30.20;63.60;;;;;;4872739;29;20273;-76
2022/07/14 12:11:08;;;;;;;;;;;30.80;64.20;;;;;;4873137;29;19908;-76
2022/07/14 12:13:44;;;;;;;;;;;31.30;63.70;;;;;;4873113;29;19912;-76
2022/07/14 12:16:10;;;;;;;;;;;31.30;63.10;;;;;;4871894;29;19908;-77
2022/07/14 12:18:35;;;;;;;;;;;30.90;62.80;;;;;;4872239;29;20295;-76
2022/07/14 12:21:01;;;;;;;;;;;30.40;62.70;;;;;;4875326;29;19911;-76
2022/07/14 12:23:28;;;;;;;;;;;29.90;62.80;;;;;;4860253;29;20007;-76
2022/07/14 12:25:58;;;;;;;;;;;29.40;62.80;;;;;;4875510;29;19999;-76
2022/07/14 12:28:25;;;;;;;;;;;29.00;63.00;;;;;;4875655;29;19912;-76
2022/07/14 12:30:52;;;;;;;;;;;28.60;63.30;;;;;;4876771;29;19915;-76
2022/07/14 12:33:19;;;;;;;;;;;28.40;63.60;;;;;;4876591;29;19915;-76
2022/07/14 12:35:46;;;;;;;;;;;28.40;63.70;;;;;;4875570;29;19923;-75
2022/07/14 12:38:12;;;;;;;;;;;28.40;63.60;;;;;;4876657;29;20006;-76
2022/07/14 12:40:38;;;;;;;;;;;28.40;63.90;;;;;;4876714;29;20396;-76
2022/07/14 12:43:04;;;;;;;;;;;28.40;64.00;;;;;;4875714;29;19916;-75
2022/07/14 12:45:30;;;;;;;;;;;28.50;63.90;;;;;;4875681;29;20002;-75
2022/07/14 12:47:58;;;;;;;;;;;28.50;63.50;;;;;;4876724;29;20010;-75
2022/07/14 12:50:25;;;;;;;;;;;28.70;63.50;;;;;;4875024;29;20358;-75
2022/07/14 12:52:50;;;;;;;;;;;28.70;63.00;;;;;;4876226;29;20031;-75
2022/07/14 12:55:34;;;;;;;;;;;28.80;63.10;;;;;;4876570;29;19951;-75
2022/07/14 12:58:04;;;;;;;;;;;29.20;63.40;;;;;;4874584;29;20376;-75
2022/07/14 13:00:33;;;;;;;;;;;29.50;63.10;;;;;;4859079;29;19928;-75
2022/07/14 13:03:10;;;;;;;;;;;29.60;63.20;;;;;;4874703;29;19911;-76
2022/07/14 13:05:36;;;;;;;;;;;29.60;62.70;;;;;;4875907;29;19956;-76
2022/07/14 13:08:22;;;;;;;;;;;29.60;62.60;;;;;;4874171;29;19908;-76
2022/07/14 13:10:55;;;;;;;;;;;29.50;62.80;;;;;;4874302;29;20441;-76
2022/07/14 13:13:47;;;;;;;;;;;29.50;62.80;;;;;;4859373;29;19955;-76
2022/07/14 13:16:17;;;;;;;;;;;29.70;63.10;;;;;;4873745;29;20330;-76
2022/07/14 13:19:01;;;;;;;;;;;30.20;63.30;;;;;;4874867;29;19908;-76
2022/07/14 13:21:45;;;;;;;;;;;30.40;63.00;;;;;;4875841;29;19922;-76
2022/07/14 13:24:12;;;;;;;;;;;30.50;62.80;;;;;;4874267;29;19915;-76
2022/07/14 13:26:38;;;;;;;;;;;30.20;62.20;;;;;;4874333;29;19914;-76
2022/07/14 13:29:03;;;;;;;;;;;29.60;62.60;;;;;;4875782;29;19907;-76
2022/07/14 13:31:29;;;;;;;;;;;29.30;63.00;;;;;;4873667;29;20395;-76
2022/07/14 13:34:02;;;;;;;;;;;29.10;62.60;;;;;;4875698;29;19960;-76
2022/07/14 13:36:28;;;;;;;;;;;28.90;62.70;;;;;;4874350;29;20320;-76
2022/07/14 13:38:54;;;;;;;;;;;28.90;62.70;;;;;;4874686;29;20011;-75
2022/07/14 13:41:20;;;;;;;;;;;28.80;62.60;;;;;;4875681;29;19954;-76
2022/07/14 13:43:47;;;;;;;;;;;28.80;62.60;;;;;;4873978;29;19908;-75
2022/07/14 13:46:13;;;;;;;;;;;28.80;62.50;;;;;;4875217;29;19911;-75
2022/07/14 13:48:40;;;;;;;;;;;28.70;62.40;;;;;;4875458;29;19992;-76
2022/07/14 13:53:50;;;;;;;;;;;28.70;62.60;;;;;;4874642;29;19922;-75
2022/07/14 13:56:16;;;;;;;;;;;28.60;62.50;;;;;;4873839;29;20276;-75
2022/07/14 13:58:41;;;;;;;;;;;28.50;62.60;;;;;;4873821;29;19907;-76
2022/07/14 14:01:07;;;;;;;;;;;28.70;62.60;;;;;;4873726;29;19919;-76
2022/07/14 14:03:33;;;;;;;;;;;28.80;62.40;;;;;;4858252;29;20071;-76
2022/07/14 14:06:00;;;;;;;;;;;28.70;62.50;;;;;;4858465;29;20530;-75
2022/07/14 14:08:28;;;;;;;;;;;28.60;62.60;;;;;;4874872;29;19908;-76
2022/07/14 14:10:54;;;;;;;;;;;28.50;62.90;;;;;;4873869;29;20384;-76
2022/07/14 14:13:20;;;;;;;;;;;28.40;63.00;;;;;;4875001;29;19916;-76
2022/07/14 14:15:46;;;;;;;;;;;28.40;62.90;;;;;;4873865;29;19923;-75
2022/07/14 14:18:12;;;;;;;;;;;28.40;62.50;;;;;;4874645;29;19912;-76
2022/07/14 14:20:37;;;;;;;;;;;28.20;62.40;;;;;;4873704;29;19907;-76
2022/07/14 14:23:05;;;;;;;;;;;28.20;62.30;;;;;;4874939;29;19967;-76
2022/07/14 14:25:31;;;;;;;;;;;28.20;62.90;;;;;;4875048;29;20002;-78
2022/07/14 14:27:57;;;;;;;;;;;28.10;62.50;;;;;;4873229;29;19908;-76
2022/07/14 14:30:22;;;;;;;;;;;28.10;62.80;;;;;;4873395;29;20287;-76
2022/07/14 14:32:48;;;;;;;;;;;28.20;62.70;;;;;;4857731;29;19920;-76
2022/07/14 14:35:13;;;;;;;;;;;28.30;62.60;;;;;;4874776;29;20295;-77